Stet, Missouri
Current Conditions -  °F | °C
As of 10:55 AM on Saturday 25 Oct 2014 (Local Time) from KGPH Reporting Station
Haze Haze  
Wind Chill: 59°   Ceiling: 200
Heat Index: 59°   Visibility: 3mi
Dew Point: 59°   Wind: 0mph
Humidity: 100%   Direction: NA
Pressure: 30.09"   Gusts: NA
Location:  39.42°N, 93.76°W
Report Text: KGPH 251555Z AUTO 00000KT 3SM BR BKN002 15/15 A3009 RMK AO2
Loading
Personal Weather Stations






























Interactive Weather Map
Tropical Storm Tracking
New forecast layout! Learn more

10-Day Weather Forecast

Advertisements
Track Severe Weather on mobile